createdAt,value
2018-08-24T00:01:52.223Z,6.50
2018-08-24T00:04:20.800Z,6.28
2018-08-24T00:06:49.272Z,11.15
2018-08-24T00:09:21.930Z,6.25
2018-08-24T00:11:50.545Z,6.50
2018-08-24T00:14:18.918Z,6.40
2018-08-24T00:16:47.378Z,6.50
2018-08-24T00:19:16.625Z,6.27
2018-08-24T00:21:45.740Z,6.73
2018-08-24T00:24:14.731Z,7.87
2018-08-24T00:26:43.248Z,5.92
2018-08-24T00:29:11.877Z,6.53
2018-08-24T00:31:40.692Z,7.00
2018-08-24T00:34:09.333Z,6.57
2018-08-24T00:36:37.739Z,7.87
2018-08-24T00:39:08.168Z,6.67
2018-08-24T00:41:36.963Z,8.60
2018-08-24T00:44:05.411Z,6.50
2018-08-24T00:46:33.920Z,6.17
2018-08-24T00:49:02.481Z,6.17
2018-08-24T00:51:30.877Z,6.17
2018-08-24T00:53:59.299Z,6.00
2018-08-24T00:56:27.722Z,9.65
2018-08-24T00:59:02.877Z,6.53
2018-08-24T01:01:31.347Z,6.77
2018-08-24T01:03:59.805Z,5.50
2018-08-24T01:06:28.270Z,6.42
2018-08-24T01:08:57.117Z,6.20
2018-08-24T01:11:30.995Z,6.00
2018-08-24T01:13:59.375Z,6.08
2018-08-24T01:16:33.267Z,5.33
2018-08-24T01:19:01.801Z,6.40
2018-08-24T01:21:30.282Z,6.10
2018-08-24T01:23:58.727Z,6.28
2018-08-24T01:26:27.327Z,6.10
2018-08-24T01:28:55.904Z,5.22
2018-08-24T01:31:24.337Z,5.25
2018-08-24T01:33:52.872Z,5.15
2018-08-24T01:36:21.359Z,5.22
2018-08-24T01:38:50.035Z,5.08
2018-08-24T01:41:18.481Z,4.97
2018-08-24T01:43:46.833Z,4.90
2018-08-24T01:46:16.059Z,4.80
2018-08-24T01:48:44.446Z,4.65
2018-08-24T01:51:13.068Z,4.87
2018-08-24T01:53:41.544Z,7.17
2018-08-24T01:56:09.957Z,4.40
2018-08-24T01:58:38.372Z,5.13
2018-08-24T02:01:06.884Z,5.13
2018-08-24T02:03:35.276Z,5.42
2018-08-24T02:06:06.299Z,4.97
2018-08-24T02:08:35.830Z,4.95
2018-08-24T02:11:08.693Z,4.80
2018-08-24T02:13:42.730Z,4.90
2018-08-24T02:16:11.173Z,4.70
2018-08-24T02:18:45.025Z,5.10
2018-08-24T02:21:18.939Z,5.33
2018-08-24T02:23:47.486Z,6.53
2018-08-24T02:26:15.943Z,4.83
2018-08-24T02:28:44.439Z,5.10
2018-08-24T02:31:12.950Z,5.40
2018-08-24T02:33:41.362Z,5.12
2018-08-24T02:36:10.746Z,5.60
2018-08-24T02:38:39.907Z,4.97
2018-08-24T02:41:08.366Z,5.63
2018-08-24T02:43:36.757Z,5.67
2018-08-24T02:46:05.295Z,5.62
2018-08-24T02:48:33.707Z,5.90
2018-08-24T02:51:02.132Z,5.20
2018-08-24T02:53:30.532Z,6.10
2018-08-24T02:55:59.035Z,6.10
2018-08-24T02:58:27.562Z,5.83
2018-08-24T03:00:55.987Z,6.50
2018-08-24T03:03:24.350Z,6.37
2018-08-24T03:05:52.694Z,5.37
2018-08-24T03:08:21.161Z,6.00
2018-08-24T03:10:49.565Z,5.87
2018-08-24T03:13:17.963Z,6.30
2018-08-24T03:15:46.377Z,6.07
2018-08-24T03:18:14.837Z,6.33
2018-08-24T03:20:43.266Z,5.97
2018-08-24T03:23:11.634Z,6.40
2018-08-24T03:25:40.099Z,7.27
2018-08-24T03:28:08.494Z,6.60
2018-08-24T03:30:36.958Z,7.20
2018-08-24T03:33:05.480Z,6.30
2018-08-24T03:35:33.854Z,6.03
2018-08-24T03:38:02.314Z,6.33
2018-08-24T03:40:30.689Z,6.30
2018-08-24T03:42:59.104Z,6.95
2018-08-24T03:45:27.554Z,6.97
2018-08-24T03:47:55.941Z,7.20
2018-08-24T03:50:24.460Z,7.00
2018-08-24T03:52:53.147Z,7.10
2018-08-24T03:55:21.641Z,7.47
2018-08-24T03:57:50.048Z,7.33
2018-08-24T04:00:18.682Z,6.90
2018-08-24T04:02:47.639Z,6.93
2018-08-24T04:05:17.114Z,6.77
2018-08-24T04:07:45.679Z,6.53
2018-08-24T04:10:14.094Z,7.30
2018-08-24T04:12:42.601Z,7.37
2018-08-24T04:15:11.064Z,8.30
2018-08-24T04:17:42.040Z,7.40
2018-08-24T04:20:10.466Z,7.43
2018-08-24T04:22:39.112Z,7.70
2018-08-24T04:25:07.928Z,7.57
2018-08-24T04:27:36.398Z,7.40
2018-08-24T04:30:05.099Z,7.73
2018-08-24T04:32:33.960Z,7.37
2018-08-24T04:35:02.761Z,7.77
2018-08-24T04:37:31.219Z,7.07
2018-08-24T04:39:59.645Z,7.23
2018-08-24T04:42:28.221Z,7.90
2018-08-24T04:44:56.684Z,8.13
2018-08-24T04:47:25.260Z,7.93
2018-08-24T04:49:54.561Z,10.53
2018-08-24T04:52:23.427Z,10.13
2018-08-24T04:54:52.076Z,8.33
2018-08-24T04:57:20.514Z,7.30
2018-08-24T04:59:48.931Z,8.23
2018-08-24T05:02:17.346Z,8.57
2018-08-24T05:04:45.733Z,7.53
2018-08-24T05:07:14.131Z,7.77
2018-08-24T05:09:42.722Z,8.50
2018-08-24T05:12:11.099Z,10.27
2018-08-24T05:14:39.608Z,8.53
2018-08-24T05:17:08.051Z,8.27
2018-08-24T05:19:36.433Z,8.77
2018-08-24T05:22:04.885Z,9.90
2018-08-24T05:24:33.355Z,8.00
2018-08-24T05:27:01.915Z,7.97
2018-08-24T05:29:30.719Z,7.80
2018-08-24T05:31:59.227Z,9.30
2018-08-24T05:34:27.640Z,7.77
2018-08-24T05:36:56.138Z,8.28
2018-08-24T05:39:24.732Z,7.80
2018-08-24T05:41:53.093Z,9.73
2018-08-24T05:44:21.521Z,9.13
2018-08-24T05:46:49.908Z,8.53
2018-08-24T05:49:18.338Z,8.97
2018-08-24T05:51:46.743Z,7.93
2018-08-24T05:54:15.216Z,6.95
2018-08-24T05:56:43.607Z,7.55
2018-08-24T05:59:12.297Z,7.33
2018-08-24T06:01:40.719Z,7.33
2018-08-24T06:04:09.073Z,8.00
2018-08-24T06:06:37.466Z,9.40
2018-08-24T06:09:14.175Z,9.57
2018-08-24T06:11:43.366Z,9.73
2018-08-24T06:14:12.844Z,8.40
2018-08-24T06:17:44.450Z,8.10
2018-08-24T06:20:12.935Z,8.27
2018-08-24T06:22:41.364Z,10.53
2018-08-24T06:25:10.068Z,10.93
2018-08-24T06:27:38.668Z,8.65
2018-08-24T06:30:07.419Z,9.70
2018-08-24T06:32:35.823Z,9.30
2018-08-24T06:35:04.249Z,10.07
2018-08-24T06:37:32.847Z,10.28
2018-08-24T06:40:01.218Z,12.50
2018-08-24T06:42:29.658Z,10.28
2018-08-24T06:44:58.140Z,10.03
2018-08-24T06:47:26.642Z,9.60
2018-08-24T06:49:55.072Z,10.03
2018-08-24T06:52:23.498Z,10.88
2018-08-24T06:54:51.943Z,10.43
2018-08-24T06:57:20.410Z,10.85
2018-08-24T06:59:49.073Z,11.30
2018-08-24T07:02:17.622Z,11.03
2018-08-24T07:04:46.025Z,11.88
2018-08-24T07:07:14.428Z,11.17
2018-08-24T07:09:43.767Z,11.53
2018-08-24T07:12:13.445Z,12.78
2018-08-24T07:14:42.750Z,13.28
2018-08-24T07:17:11.146Z,13.73
2018-08-24T07:19:39.678Z,13.53
2018-08-24T07:22:08.475Z,11.65
2018-08-24T07:24:36.920Z,12.65
2018-08-24T07:27:05.331Z,12.18
2018-08-24T07:29:33.711Z,11.70
2018-08-24T07:32:02.295Z,12.45
2018-08-24T07:34:30.661Z,12.55
2018-08-24T07:36:59.226Z,11.90
2018-08-24T07:39:27.737Z,11.77
2018-08-24T07:41:56.197Z,12.10
2018-08-24T07:44:24.591Z,11.25
2018-08-24T07:46:53.071Z,14.65
2018-08-24T07:49:21.638Z,11.30
2018-08-24T07:51:50.108Z,11.40
2018-08-24T07:54:18.755Z,11.00
2018-08-24T07:56:47.150Z,11.33
2018-08-24T07:59:15.546Z,11.97
2018-08-24T08:01:44.038Z,12.33
2018-08-24T08:04:12.627Z,12.40
2018-08-24T08:06:41.031Z,14.30
2018-08-24T08:09:09.442Z,13.67
2018-08-24T08:11:40.944Z,15.65
2018-08-24T08:14:09.895Z,16.00
2018-08-24T08:16:38.293Z,14.95
2018-08-24T08:19:06.894Z,15.43
2018-08-24T08:21:35.375Z,16.02
2018-08-24T08:24:03.821Z,16.25
2018-08-24T08:26:32.241Z,17.05
2018-08-24T08:29:00.719Z,15.20
2018-08-24T08:31:29.237Z,19.20
2018-08-24T08:33:57.698Z,23.45
2018-08-24T08:36:26.373Z,18.85
2018-08-24T08:38:55.032Z,19.45
2018-08-24T08:41:23.471Z,21.60
2018-08-24T08:43:52.016Z,22.22
2018-08-24T08:46:20.434Z,19.57
2018-08-24T08:48:48.986Z,17.75
2018-08-24T08:51:17.493Z,17.12
2018-08-24T08:53:45.961Z,16.82
2018-08-24T08:56:14.561Z,20.08
2018-08-24T08:58:43.136Z,21.73
2018-08-24T09:01:11.627Z,18.85
2018-08-24T09:03:40.082Z,21.70
2018-08-24T09:06:08.579Z,22.67
2018-08-24T09:08:37.007Z,22.00
2018-08-24T09:11:05.466Z,20.15
2018-08-24T09:13:34.067Z,23.92
2018-08-24T09:16:02.661Z,23.07
2018-08-24T09:18:36.444Z,21.87
2018-08-24T09:21:10.360Z,22.10
2018-08-24T09:23:44.193Z,21.15
2018-08-24T09:26:18.044Z,25.40
2018-08-24T09:28:47.207Z,24.37
2018-08-24T09:31:18.915Z,21.12
2018-08-24T09:33:47.639Z,19.30
2018-08-24T09:36:19.528Z,22.95
2018-08-24T09:38:48.703Z,20.05
2018-08-24T09:41:17.103Z,19.92
2018-08-24T09:43:50.897Z,22.25
2018-08-24T09:46:19.494Z,20.17
2018-08-24T09:48:53.356Z,21.93
2018-08-24T09:51:27.078Z,22.20
2018-08-24T09:54:00.748Z,18.23
2018-08-24T09:56:30.337Z,20.72
2018-08-24T09:58:59.303Z,22.00
2018-08-24T10:01:33.121Z,19.12
2018-08-24T10:04:06.952Z,16.25
2018-08-24T10:06:40.864Z,19.55
2018-08-24T10:09:10.578Z,17.20
2018-08-24T10:11:38.980Z,21.25
2018-08-24T10:14:07.779Z,22.58
2018-08-24T10:16:36.306Z,20.77
2018-08-24T10:19:04.737Z,19.30
2018-08-24T10:21:33.111Z,24.63
2018-08-24T10:24:01.679Z,18.32
2018-08-24T10:26:30.101Z,18.87
2018-08-24T10:28:58.601Z,19.73
2018-08-24T10:31:27.022Z,17.45
2018-08-24T10:33:55.550Z,18.40
2018-08-24T10:36:23.964Z,18.40
2018-08-24T10:38:52.491Z,17.50
2018-08-24T10:41:20.933Z,17.27
2018-08-24T10:43:49.353Z,19.25
2018-08-24T10:46:17.977Z,17.57
2018-08-24T10:48:46.559Z,15.93
2018-08-24T10:51:15.009Z,16.52
2018-08-24T10:53:43.464Z,19.05
2018-08-24T10:56:11.981Z,16.60
2018-08-24T10:58:40.593Z,15.58
2018-08-24T11:01:09.276Z,18.15
2018-08-24T11:03:37.763Z,17.15
2018-08-24T11:06:06.291Z,16.55
2018-08-24T11:08:34.835Z,16.55
2018-08-24T11:11:03.254Z,14.85
2018-08-24T11:13:31.713Z,16.52
2018-08-24T11:16:00.217Z,17.57
2018-08-24T11:18:28.675Z,17.02
2018-08-24T11:20:58.432Z,17.40
2018-08-24T11:23:27.144Z,16.87
2018-08-24T11:25:55.609Z,14.30
2018-08-24T11:28:23.981Z,14.43
2018-08-24T11:30:52.369Z,11.08
2018-08-24T11:33:20.898Z,10.75
2018-08-24T11:35:49.417Z,12.73
2018-08-24T11:38:18.035Z,11.30
2018-08-24T11:40:46.455Z,11.10
2018-08-24T11:43:14.871Z,11.12
2018-08-24T11:45:43.480Z,11.55
2018-08-24T11:48:11.872Z,12.00
2018-08-24T11:50:40.289Z,9.48
2018-08-24T11:53:08.663Z,8.25
2018-08-24T11:55:37.200Z,8.45
2018-08-24T11:58:05.626Z,8.33
2018-08-24T12:00:34.789Z,9.85
2018-08-24T12:03:03.878Z,6.78
2018-08-24T12:05:32.587Z,6.80
2018-08-24T12:08:01.078Z,7.75
2018-08-24T12:10:29.410Z,6.50
2018-08-24T12:12:58.322Z,6.60
2018-08-24T12:15:26.731Z,8.40
2018-08-24T12:17:55.573Z,8.75
2018-08-24T12:20:23.976Z,7.33
2018-08-24T12:22:52.366Z,6.28
2018-08-24T12:25:20.838Z,6.72
2018-08-24T12:27:49.239Z,6.05
2018-08-24T12:30:17.663Z,6.17
2018-08-24T12:32:46.178Z,6.58
2018-08-24T12:35:14.624Z,8.25
2018-08-24T12:37:47.057Z,5.50
2018-08-24T12:40:16.248Z,7.83
2018-08-24T12:42:46.686Z,4.97
2018-08-24T12:45:15.050Z,5.55
2018-08-24T12:47:43.509Z,5.87
2018-08-24T12:50:11.910Z,5.35
2018-08-24T12:52:40.317Z,6.80
2018-08-24T12:55:08.706Z,6.47
2018-08-24T12:57:37.136Z,6.47
2018-08-24T13:00:05.757Z,7.33
2018-08-24T13:02:34.207Z,7.25
2018-08-24T13:05:04.215Z,5.72
2018-08-24T13:07:32.698Z,7.47
2018-08-24T13:10:01.144Z,5.75
2018-08-24T13:12:29.661Z,7.03
2018-08-24T13:14:58.185Z,5.97
2018-08-24T13:17:26.646Z,5.42
2018-08-24T13:19:55.012Z,5.17
2018-08-24T13:22:23.579Z,4.37
2018-08-24T13:24:52.090Z,5.67
2018-08-24T13:27:20.509Z,5.65
2018-08-24T13:29:48.963Z,6.35
2018-08-24T13:32:17.415Z,4.92
2018-08-24T13:34:45.812Z,7.33
2018-08-24T13:37:14.213Z,8.93
2018-08-24T13:39:42.726Z,7.60
2018-08-24T13:42:11.222Z,10.82
2018-08-24T13:44:39.604Z,4.53
2018-08-24T13:47:08.018Z,7.37
2018-08-24T13:49:36.574Z,5.37
2018-08-24T13:52:05.120Z,4.20
2018-08-24T13:54:33.541Z,3.83
2018-08-24T13:57:02.023Z,5.05
2018-08-24T13:59:30.451Z,5.37
2018-08-24T14:01:58.986Z,3.58
2018-08-24T14:04:27.582Z,4.03
2018-08-24T14:06:56.011Z,4.22
2018-08-24T14:09:24.449Z,5.08
2018-08-24T14:11:53.115Z,5.62
2018-08-24T14:14:21.728Z,3.40
2018-08-24T14:16:50.305Z,3.00
2018-08-24T14:19:18.894Z,2.62
2018-08-24T14:21:47.279Z,3.17
2018-08-24T14:24:15.711Z,5.33
2018-08-24T14:26:44.286Z,3.35
2018-08-24T14:29:12.662Z,5.33
2018-08-24T14:31:41.267Z,3.25
2018-08-24T14:34:09.685Z,5.78
2018-08-24T14:36:38.160Z,8.88
2018-08-24T14:39:08.331Z,3.87
2018-08-24T14:41:36.728Z,3.17
2018-08-24T14:44:05.425Z,5.67
2018-08-24T14:46:33.934Z,5.97
2018-08-24T14:49:02.336Z,8.85
2018-08-24T14:51:30.893Z,6.87
2018-08-24T14:53:59.308Z,3.60
2018-08-24T14:56:27.834Z,5.17
2018-08-24T14:58:56.723Z,7.42
2018-08-24T15:01:25.144Z,5.40
2018-08-24T15:03:53.686Z,6.72
2018-08-24T15:06:22.378Z,5.15
2018-08-24T15:08:50.777Z,4.58
2018-08-24T15:11:19.211Z,7.65
2018-08-24T15:13:47.691Z,7.30
2018-08-24T15:16:16.130Z,10.43
2018-08-24T15:18:44.584Z,15.75
2018-08-24T15:21:12.955Z,12.18
2018-08-24T15:23:41.391Z,9.30
2018-08-24T15:26:09.818Z,8.55
2018-08-24T15:28:38.200Z,12.03
2018-08-24T15:31:06.579Z,10.20
2018-08-24T15:33:35.023Z,9.63
2018-08-24T15:36:03.641Z,11.30
2018-08-24T15:38:31.990Z,8.93
2018-08-24T15:41:00.345Z,9.90
2018-08-24T15:43:28.985Z,12.15
2018-08-24T15:45:57.404Z,10.58
2018-08-24T15:48:25.981Z,10.08
2018-08-24T15:50:54.531Z,5.95
2018-08-24T15:53:23.036Z,7.20
2018-08-24T15:55:51.431Z,11.75
2018-08-24T15:58:19.834Z,8.83
2018-08-24T16:00:48.195Z,5.40
2018-08-24T16:03:16.584Z,7.10
2018-08-24T16:05:45.041Z,7.92
2018-08-24T16:08:13.462Z,7.85
2018-08-24T16:10:41.975Z,7.63
2018-08-24T16:13:10.366Z,7.67
2018-08-24T16:15:38.872Z,7.23
2018-08-24T16:18:12.678Z,8.50
2018-08-24T16:20:41.230Z,7.15
2018-08-24T16:23:09.580Z,7.10
2018-08-24T16:25:37.967Z,7.70
2018-08-24T16:28:06.447Z,7.80
2018-08-24T16:30:34.843Z,6.08
2018-08-24T16:33:03.288Z,5.90
2018-08-24T16:35:31.996Z,7.20
2018-08-24T16:38:00.505Z,6.62
2018-08-24T16:40:28.908Z,6.47
2018-08-24T16:42:57.336Z,8.53
2018-08-24T16:45:26.181Z,6.62
2018-08-24T16:47:54.538Z,8.38
2018-08-24T16:50:22.895Z,7.33
2018-08-24T16:52:51.322Z,6.22
2018-08-24T16:55:19.762Z,6.55
2018-08-24T16:57:49.157Z,8.33
2018-08-24T17:00:17.596Z,6.35
2018-08-24T17:02:45.976Z,7.50
2018-08-24T17:05:14.617Z,9.27
2018-08-24T17:07:43.143Z,7.10
2018-08-24T17:10:11.579Z,6.77
2018-08-24T17:12:40.050Z,7.30
2018-08-24T17:15:08.428Z,7.93
2018-08-24T17:17:36.825Z,8.80
2018-08-24T17:20:05.512Z,6.47
2018-08-24T17:22:34.100Z,5.92
2018-08-24T17:25:02.676Z,7.33
2018-08-24T17:27:31.295Z,8.33
2018-08-24T17:30:00.980Z,5.90
2018-08-24T17:32:29.519Z,6.63
2018-08-24T17:34:58.342Z,7.17
2018-08-24T17:37:26.753Z,6.40
2018-08-24T17:39:55.215Z,6.13
2018-08-24T17:42:23.626Z,6.77
2018-08-24T17:44:52.085Z,5.78
2018-08-24T17:47:20.576Z,7.23
2018-08-24T17:49:49.232Z,7.70
2018-08-24T17:52:17.714Z,6.73
2018-08-24T17:54:46.203Z,7.17
2018-08-24T17:57:14.684Z,7.60
2018-08-24T17:59:43.110Z,6.10
2018-08-24T18:02:11.519Z,6.00
2018-08-24T18:04:40.164Z,6.10
2018-08-24T18:07:08.584Z,8.57
2018-08-24T18:09:37.078Z,7.73
2018-08-24T18:12:06.083Z,5.97
2018-08-24T18:14:37.974Z,6.70
2018-08-24T18:17:06.582Z,6.20
2018-08-24T18:19:36.129Z,6.03
2018-08-24T18:22:05.025Z,5.80
2018-08-24T18:24:33.656Z,5.90
2018-08-24T18:27:02.084Z,5.20
2018-08-24T18:29:30.508Z,5.87
2018-08-24T18:31:59.132Z,6.30
2018-08-24T18:34:27.519Z,5.40
2018-08-24T18:36:56.329Z,5.60
2018-08-24T18:39:24.768Z,6.20
2018-08-24T18:41:53.182Z,4.97
2018-08-24T18:44:21.769Z,5.93
2018-08-24T18:46:50.302Z,5.73
2018-08-24T18:49:19.339Z,5.97
2018-08-24T18:51:47.750Z,6.70
2018-08-24T18:54:17.568Z,6.20
2018-08-24T18:56:46.226Z,6.10
2018-08-24T18:59:14.910Z,6.60
2018-08-24T19:01:43.803Z,5.73
2018-08-24T19:04:12.721Z,5.20
2018-08-24T19:06:41.243Z,5.10
2018-08-24T19:09:12.238Z,4.97
2018-08-24T19:11:46.192Z,5.07
2018-08-24T19:14:14.916Z,4.90
2018-08-24T19:16:43.745Z,5.00
2018-08-24T19:19:17.711Z,5.63
2018-08-24T19:21:47.839Z,4.87
2018-08-24T19:24:16.454Z,5.43
2018-08-24T19:26:44.942Z,6.33
2018-08-24T19:29:18.900Z,5.93
2018-08-24T19:31:48.106Z,5.67
2018-08-24T19:34:16.597Z,5.27
2018-08-24T19:36:45.149Z,6.10
2018-08-24T19:39:14.856Z,5.67
2018-08-24T19:41:48.733Z,7.07
2018-08-24T19:44:17.327Z,5.60
2018-08-24T19:46:46.186Z,5.60
2018-08-24T19:49:17.329Z,7.13
2018-08-24T19:51:45.850Z,6.47
2018-08-24T19:54:15.295Z,6.83
2018-08-24T19:56:43.931Z,6.37
2018-08-24T19:59:13.903Z,5.83
2018-08-24T20:01:42.540Z,5.83
2018-08-24T20:04:11.169Z,6.87
2018-08-24T20:06:44.931Z,7.30
2018-08-24T20:09:18.984Z,5.93
2018-08-24T20:11:49.740Z,5.90
2018-08-24T20:14:23.747Z,6.30
2018-08-24T20:16:57.791Z,6.37
2018-08-24T20:19:26.733Z,7.07
2018-08-24T20:21:55.246Z,6.10
2018-08-24T20:24:23.917Z,7.17
2018-08-24T20:26:52.224Z,6.90
2018-08-24T20:29:21.653Z,7.10
2018-08-24T20:31:50.574Z,7.17
2018-08-24T20:34:19.170Z,9.30
2018-08-24T20:36:47.770Z,16.10
2018-08-24T20:39:16.195Z,18.37
2018-08-24T20:41:44.747Z,26.63
2018-08-24T20:44:15.279Z,26.43
2018-08-24T20:46:44.719Z,24.70
2018-08-24T20:49:14.458Z,21.70
2018-08-24T20:51:45.936Z,19.03
2018-08-24T20:54:14.420Z,15.47
2018-08-24T20:56:43.945Z,13.83
2018-08-24T20:59:12.343Z,13.00
2018-08-24T21:01:40.807Z,13.77
2018-08-24T21:04:09.237Z,8.80
2018-08-24T21:06:37.732Z,8.07
2018-08-24T21:09:08.299Z,8.97
2018-08-24T21:11:36.755Z,8.43
2018-08-24T21:14:05.332Z,8.20
2018-08-24T21:16:33.905Z,7.63
2018-08-24T21:19:02.435Z,8.77
2018-08-24T21:21:30.962Z,8.17
2018-08-24T21:23:59.763Z,8.27
2018-08-24T21:26:28.451Z,8.27
2018-08-24T21:28:57.034Z,8.67
2018-08-24T21:31:25.517Z,8.30
2018-08-24T21:33:54.027Z,7.77
2018-08-24T21:36:22.577Z,9.83
2018-08-24T21:38:51.075Z,9.10
2018-08-24T21:41:19.512Z,10.57
2018-08-24T21:43:48.175Z,8.03
2018-08-24T21:46:16.929Z,9.27
2018-08-24T21:48:45.415Z,7.87
2018-08-24T21:51:13.842Z,8.07
2018-08-24T21:53:42.266Z,8.33
2018-08-24T21:56:10.941Z,8.13
2018-08-24T21:58:40.856Z,9.70
2018-08-24T22:06:01.599Z,8.07
2018-08-24T22:08:29.980Z,8.07
2018-08-24T22:10:58.754Z,7.77
2018-08-24T22:13:27.474Z,7.90
2018-08-24T22:15:56.136Z,8.97
2018-08-24T22:18:24.599Z,8.80
2018-08-24T22:20:53.092Z,7.50
2018-08-24T22:23:21.496Z,7.00
2018-08-24T22:25:49.896Z,7.87
2018-08-24T22:28:18.317Z,7.03
2018-08-24T22:30:46.916Z,7.43
2018-08-24T22:33:15.383Z,8.23
2018-08-24T22:35:43.747Z,8.00
2018-08-24T22:38:12.155Z,7.87
2018-08-24T22:40:40.611Z,7.80
2018-08-24T22:43:13.528Z,8.50
2018-08-24T22:45:41.919Z,7.47
2018-08-24T22:48:10.498Z,7.93
2018-08-24T22:50:39.513Z,7.97
2018-08-24T22:53:08.073Z,7.20
2018-08-24T22:55:36.544Z,7.30
2018-08-24T22:58:05.057Z,8.20
2018-08-24T23:00:33.715Z,8.90
2018-08-24T23:03:02.131Z,7.87
2018-08-24T23:05:30.467Z,7.83
2018-08-24T23:07:58.845Z,8.70
2018-08-24T23:10:27.292Z,8.67
2018-08-24T23:12:55.733Z,7.63
2018-08-24T23:15:24.167Z,8.47
2018-08-24T23:17:52.787Z,7.87
2018-08-24T23:20:21.335Z,8.40
2018-08-24T23:22:49.779Z,7.67
2018-08-24T23:25:18.224Z,7.53
2018-08-24T23:27:46.673Z,8.80
2018-08-24T23:30:15.225Z,8.40
2018-08-24T23:32:43.806Z,8.90
2018-08-24T23:35:12.458Z,9.00
2018-08-24T23:37:40.859Z,8.00
2018-08-24T23:40:09.744Z,9.43
2018-08-24T23:42:38.441Z,8.70
2018-08-24T23:45:07.043Z,7.90
2018-08-24T23:47:35.572Z,7.77
2018-08-24T23:50:04.296Z,8.23
2018-08-24T23:52:32.740Z,8.20
2018-08-24T23:55:01.107Z,7.30
2018-08-24T23:57:29.519Z,7.03
2018-08-24T23:59:57.905Z,7.13
